createdAt,value
2023-04-29T00:00:22.910Z,11.78
2023-04-29T00:01:27.502Z,11.85
2023-04-29T00:02:32.257Z,11.88
2023-04-29T00:03:36.389Z,11.88
2023-04-29T00:04:40.786Z,11.89
2023-04-29T00:05:45.314Z,11.88
2023-04-29T00:06:49.308Z,11.82
2023-04-29T00:07:53.394Z,11.81
2023-04-29T00:08:57.767Z,11.81
2023-04-29T00:10:02.397Z,11.84
2023-04-29T00:11:06.518Z,11.86
2023-04-29T00:12:10.847Z,11.86
2023-04-29T00:13:15.199Z,11.88
2023-04-29T00:14:19.784Z,11.87
2023-04-29T00:15:24.407Z,11.86
2023-04-29T00:16:28.265Z,11.91
2023-04-29T00:17:32.926Z,11.92
2023-04-29T00:18:37.130Z,11.97
2023-04-29T00:19:41.471Z,11.97
2023-04-29T00:20:45.563Z,11.93
2023-04-29T00:21:49.155Z,11.92
2023-04-29T00:22:54.225Z,11.90
2023-04-29T00:23:59.069Z,11.92
2023-04-29T00:25:03.153Z,11.97
2023-04-29T00:26:07.501Z,12.05
2023-04-29T00:27:11.586Z,12.02
2023-04-29T00:28:16.169Z,11.96
2023-04-29T00:29:16.565Z,11.99
2023-04-29T00:30:20.398Z,11.98
2023-04-29T00:31:25.022Z,11.97
2023-04-29T00:32:29.142Z,12.00
2023-04-29T00:33:36.658Z,12.03
2023-04-29T00:34:35.774Z,12.05
2023-04-29T00:35:40.149Z,12.06
2023-04-29T00:36:44.693Z,12.10
2023-04-29T00:37:48.822Z,12.06
2023-04-29T00:38:53.146Z,12.08
2023-04-29T00:39:57.482Z,12.07
2023-04-29T00:41:01.593Z,12.01
2023-04-29T00:42:06.154Z,11.97
2023-04-29T00:43:10.479Z,12.03
2023-04-29T00:44:14.834Z,12.05
2023-04-29T00:45:19.206Z,12.02
2023-04-29T00:46:23.846Z,11.99
2023-04-29T00:47:27.955Z,12.02
2023-04-29T00:48:31.995Z,11.96
2023-04-29T00:49:36.321Z,11.96
2023-04-29T00:50:40.875Z,11.95
2023-04-29T00:51:45.448Z,12.01
2023-04-29T00:52:49.796Z,12.03
2023-04-29T00:53:53.901Z,12.03
2023-04-29T00:54:58.478Z,12.03
2023-04-29T00:56:02.539Z,11.97
2023-04-29T00:57:07.144Z,12.00
2023-04-29T00:58:11.451Z,12.03
2023-04-29T01:00:16.850Z,12.09
2023-04-29T01:01:16.000Z,12.10
2023-04-29T01:02:20.337Z,12.13
2023-04-29T01:03:25.295Z,12.08
2023-04-29T01:04:29.438Z,12.13
2023-04-29T01:05:33.770Z,12.11
2023-04-29T01:06:38.108Z,12.07
2023-04-29T01:07:42.460Z,12.04
2023-04-29T01:08:46.580Z,12.08
2023-04-29T01:09:51.702Z,12.07
2023-04-29T01:10:55.546Z,12.04
2023-04-29T01:11:59.611Z,12.07
2023-04-29T01:13:04.221Z,12.07
2023-04-29T01:14:08.814Z,12.08
2023-04-29T01:15:13.133Z,12.07
2023-04-29T01:16:17.219Z,12.08
2023-04-29T01:17:29.332Z,12.07
2023-04-29T01:18:25.892Z,12.07
2023-04-29T01:19:30.241Z,12.04
2023-04-29T01:20:42.302Z,12.03
2023-04-29T01:21:38.909Z,12.07
2023-04-29T01:22:42.972Z,12.10
2023-04-29T01:23:47.562Z,12.08
2023-04-29T01:24:51.650Z,12.06
2023-04-29T01:25:56.297Z,12.06
2023-04-29T01:27:00.649Z,12.08
2023-04-29T01:28:05.010Z,12.09
2023-04-29T01:29:09.085Z,12.13
2023-04-29T01:30:09.186Z,12.14
2023-04-29T01:31:13.554Z,12.10
2023-04-29T01:32:17.851Z,12.09
2023-04-29T01:33:22.210Z,12.07
2023-04-29T01:34:26.797Z,12.06
2023-04-29T01:35:31.368Z,12.08
2023-04-29T01:36:35.213Z,12.07
2023-04-29T01:37:39.826Z,12.03
2023-04-29T01:38:44.187Z,12.00
2023-04-29T01:39:48.580Z,12.00
2023-04-29T01:40:52.662Z,12.02
2023-04-29T01:41:57.304Z,11.97
2023-04-29T01:43:01.665Z,11.99
2023-04-29T01:44:06.247Z,12.01
2023-04-29T01:45:10.365Z,12.05
2023-04-29T01:46:14.501Z,12.02
2023-04-29T01:47:18.817Z,12.06
2023-04-29T01:48:23.150Z,12.06
2023-04-29T01:49:27.724Z,12.01
2023-04-29T01:50:32.074Z,12.06
2023-04-29T01:51:36.167Z,12.12
2023-04-29T01:52:40.768Z,12.16
2023-04-29T01:53:45.090Z,12.18
2023-04-29T01:54:49.174Z,12.22
2023-04-29T01:55:53.804Z,12.22
2023-04-29T01:56:58.154Z,12.18
2023-04-29T01:58:02.281Z,12.19
2023-04-29T01:59:06.874Z,12.24
2023-04-29T02:00:07.037Z,12.23
2023-04-29T02:01:11.097Z,12.17
2023-04-29T02:02:15.685Z,12.17
2023-04-29T02:03:20.058Z,12.20
2023-04-29T02:04:24.691Z,12.24
2023-04-29T02:05:28.959Z,12.25
2023-04-29T02:06:32.813Z,12.20
2023-04-29T02:07:37.158Z,12.18
2023-04-29T02:08:41.728Z,12.22
2023-04-29T02:09:46.092Z,12.26
2023-04-29T02:10:50.178Z,12.27
2023-04-29T02:11:54.784Z,12.24
2023-04-29T02:12:59.162Z,12.26
2023-04-29T02:14:03.754Z,12.23
2023-04-29T02:15:07.816Z,12.24
2023-04-29T02:16:12.180Z,12.18
2023-04-29T02:17:16.477Z,12.17
2023-04-29T02:18:20.540Z,12.12
2023-04-29T02:19:25.151Z,12.12
2023-04-29T02:20:29.510Z,12.08
2023-04-29T02:21:33.612Z,12.06
2023-04-29T02:22:38.479Z,12.03
2023-04-29T02:23:42.604Z,12.05
2023-04-29T02:24:46.924Z,12.05
2023-04-29T02:25:51.060Z,12.07
2023-04-29T02:26:55.670Z,12.04
2023-04-29T02:28:00.032Z,12.07
2023-04-29T02:29:04.121Z,12.06
2023-04-29T02:30:04.498Z,12.09
2023-04-29T02:31:08.565Z,12.11
2023-04-29T02:32:13.199Z,12.13
2023-04-29T02:33:17.476Z,12.17
2023-04-29T02:34:21.824Z,12.17
2023-04-29T02:35:28.983Z,12.11
2023-04-29T02:36:28.375Z,12.15
2023-04-29T02:37:32.432Z,12.10
2023-04-29T02:38:36.777Z,12.08
2023-04-29T02:39:41.433Z,12.10
2023-04-29T02:40:45.760Z,12.07
2023-04-29T02:41:50.083Z,11.94
2023-04-29T02:42:54.398Z,12.00
2023-04-29T02:43:58.750Z,11.99
2023-04-29T02:45:03.172Z,12.01
2023-04-29T02:46:07.243Z,12.04
2023-04-29T02:47:11.836Z,12.05
2023-04-29T02:48:15.987Z,12.10
2023-04-29T02:49:20.263Z,12.13
2023-04-29T02:50:24.835Z,12.11
2023-04-29T02:51:28.936Z,12.16
2023-04-29T02:52:33.544Z,12.14
2023-04-29T02:53:38.170Z,12.15
2023-04-29T02:54:42.239Z,12.17
2023-04-29T02:55:46.565Z,12.15
2023-04-29T02:56:50.650Z,12.14
2023-04-29T02:57:55.234Z,12.19
2023-04-29T02:58:59.608Z,12.17
2023-04-29T03:00:02.498Z,12.21
2023-04-29T03:01:03.913Z,12.23
2023-04-29T03:02:04.750Z,12.17
2023-04-29T03:03:04.291Z,12.21
2023-04-29T03:04:08.753Z,12.24
2023-04-29T03:05:12.551Z,12.25
2023-04-29T03:06:16.866Z,12.24
2023-04-29T03:07:21.214Z,12.26
2023-04-29T03:08:25.567Z,12.29
2023-04-29T03:09:30.424Z,12.33
2023-04-29T03:10:41.726Z,12.27
2023-04-29T03:11:38.822Z,12.25
2023-04-29T03:12:43.159Z,12.17
2023-04-29T03:13:47.487Z,12.21
2023-04-29T03:14:51.579Z,12.21
2023-04-29T03:15:55.954Z,12.24
2023-04-29T03:17:00.742Z,12.23
2023-04-29T03:18:05.261Z,12.23
2023-04-29T03:19:17.231Z,12.25
2023-04-29T03:20:13.342Z,12.28
2023-04-29T03:21:17.655Z,12.30
2023-04-29T03:22:22.255Z,12.28
2023-04-29T03:23:26.602Z,12.26
2023-04-29T03:24:30.932Z,12.25
2023-04-29T03:25:35.037Z,12.21
2023-04-29T03:26:39.653Z,12.18
2023-04-29T03:27:44.272Z,12.20
2023-04-29T03:28:48.639Z,12.20
2023-04-29T03:29:48.579Z,12.23
2023-04-29T03:30:53.224Z,12.24
2023-04-29T03:31:59.784Z,12.27
2023-04-29T03:32:59.194Z,12.26
2023-04-29T03:34:03.467Z,12.20
2023-04-29T03:35:07.531Z,12.21
2023-04-29T03:36:11.864Z,12.21
2023-04-29T03:37:16.514Z,12.26
2023-04-29T03:38:20.575Z,12.20
2023-04-29T03:39:25.176Z,12.24
2023-04-29T03:40:29.774Z,12.20
2023-04-29T03:41:33.852Z,12.22
2023-04-29T03:42:37.913Z,12.18
2023-04-29T03:43:42.239Z,12.17
2023-04-29T03:44:46.837Z,12.16
2023-04-29T03:45:50.985Z,12.18
2023-04-29T03:46:55.280Z,12.13
2023-04-29T03:47:59.673Z,12.16
2023-04-29T03:49:04.546Z,12.15
2023-04-29T03:50:08.631Z,12.14
2023-04-29T03:51:12.995Z,12.13
2023-04-29T03:52:17.112Z,12.13
2023-04-29T03:53:21.663Z,12.09
2023-04-29T03:54:26.011Z,12.10
2023-04-29T03:55:30.073Z,12.12
2023-04-29T03:56:34.679Z,12.14
2023-04-29T03:57:40.416Z,12.07
2023-04-29T03:58:43.594Z,12.10
2023-04-29T03:59:43.487Z,12.11
2023-04-29T04:00:48.088Z,12.08
2023-04-29T04:01:52.490Z,12.10
2023-04-29T04:02:56.485Z,12.05
2023-04-29T04:04:00.876Z,11.95
2023-04-29T04:05:05.385Z,12.02
2023-04-29T04:06:09.650Z,12.08
2023-04-29T04:07:14.028Z,12.05
2023-04-29T04:08:18.369Z,12.12
2023-04-29T04:09:22.740Z,12.16
2023-04-29T04:10:27.307Z,12.14
2023-04-29T04:11:31.402Z,12.19
2023-04-29T04:12:35.466Z,12.16
2023-04-29T04:13:39.820Z,12.14
2023-04-29T04:14:44.397Z,12.11
2023-04-29T04:15:48.542Z,12.10
2023-04-29T04:16:52.839Z,12.11
2023-04-29T04:17:57.479Z,12.12
2023-04-29T04:19:02.129Z,12.12
2023-04-29T04:20:06.446Z,12.09
2023-04-29T04:21:10.581Z,12.05
2023-04-29T04:22:14.637Z,12.10
2023-04-29T04:23:19.303Z,12.05
2023-04-29T04:24:23.644Z,12.09
2023-04-29T04:25:27.985Z,12.11
2023-04-29T04:26:32.335Z,12.13
2023-04-29T04:27:36.708Z,12.05
2023-04-29T04:28:41.333Z,11.98
2023-04-29T04:29:41.500Z,12.01
2023-04-29T04:30:45.852Z,11.96
2023-04-29T04:31:50.002Z,11.97
2023-04-29T04:32:54.097Z,12.01
2023-04-29T04:33:58.663Z,12.04
2023-04-29T04:35:03.040Z,12.05
2023-04-29T04:36:07.164Z,12.09
2023-04-29T04:37:11.805Z,12.11
2023-04-29T04:38:16.131Z,12.14
2023-04-29T04:39:20.726Z,12.14
2023-04-29T04:40:24.798Z,12.17
2023-04-29T04:41:28.861Z,12.17
2023-04-29T04:42:33.193Z,12.10
2023-04-29T04:43:37.788Z,12.14
2023-04-29T04:44:42.136Z,12.14
2023-04-29T04:45:46.539Z,12.18
2023-04-29T04:46:50.828Z,12.16
2023-04-29T04:47:54.974Z,12.16
2023-04-29T04:48:59.472Z,12.21
2023-04-29T04:50:03.820Z,12.15
2023-04-29T04:51:07.898Z,12.20
2023-04-29T04:52:12.237Z,12.20
2023-04-29T04:53:16.872Z,12.20
2023-04-29T04:54:21.207Z,12.16
2023-04-29T04:55:25.570Z,12.14
2023-04-29T04:56:29.657Z,12.16
2023-04-29T04:57:34.530Z,12.15
2023-04-29T04:58:38.646Z,12.11
2023-04-29T04:59:39.043Z,12.14
2023-04-29T05:00:43.509Z,12.13
2023-04-29T05:01:47.255Z,12.09
2023-04-29T05:02:51.876Z,12.13
2023-04-29T05:03:56.276Z,12.01
2023-04-29T05:05:00.556Z,12.07
2023-04-29T05:06:04.633Z,12.09
2023-04-29T05:07:09.194Z,12.12
2023-04-29T05:08:13.292Z,12.15
2023-04-29T05:09:17.916Z,12.14
2023-04-29T05:10:21.963Z,12.17
2023-04-29T05:11:26.301Z,12.13
2023-04-29T05:12:30.648Z,12.05
2023-04-29T05:13:35.231Z,12.07
2023-04-29T05:14:39.546Z,11.95
2023-04-29T05:15:43.648Z,11.91
2023-04-29T05:16:48.303Z,12.02
2023-04-29T05:17:52.635Z,12.03
2023-04-29T05:18:57.163Z,12.09
2023-04-29T05:20:01.291Z,12.11
2023-04-29T05:21:05.582Z,12.12
2023-04-29T05:22:09.645Z,12.14
2023-04-29T05:23:14.253Z,12.11
2023-04-29T05:24:18.594Z,12.16
2023-04-29T05:25:22.953Z,12.19
2023-04-29T05:26:26.987Z,12.13
2023-04-29T05:27:31.845Z,12.15
2023-04-29T05:28:35.663Z,12.13
2023-04-29T05:29:36.354Z,12.18
2023-04-29T05:30:40.451Z,12.11
2023-04-29T05:31:44.468Z,12.09
2023-04-29T05:32:48.992Z,12.11
2023-04-29T05:33:53.389Z,12.13
2023-04-29T05:34:57.488Z,12.15
2023-04-29T05:36:04.565Z,12.14
2023-04-29T05:37:03.963Z,12.19
2023-04-29T05:38:08.020Z,12.17
2023-04-29T05:39:12.360Z,12.19
2023-04-29T05:40:16.957Z,12.18
2023-04-29T05:41:21.351Z,12.16
2023-04-29T05:42:25.424Z,12.11
2023-04-29T05:43:30.035Z,12.10
2023-04-29T05:44:34.144Z,12.10
2023-04-29T05:45:38.732Z,12.15
2023-04-29T05:46:43.125Z,12.10
2023-04-29T05:47:47.198Z,12.11
2023-04-29T05:48:52.022Z,12.10
2023-04-29T05:49:56.092Z,12.11
2023-04-29T05:51:00.167Z,12.07
2023-04-29T05:52:04.766Z,12.06
2023-04-29T05:53:09.130Z,12.03
2023-04-29T05:54:13.226Z,12.09
2023-04-29T05:55:17.798Z,12.06
2023-04-29T05:56:21.884Z,12.08
2023-04-29T05:57:26.493Z,12.08
2023-04-29T05:58:31.068Z,12.11
2023-04-29T05:59:36.163Z,12.10
2023-04-29T06:00:40.536Z,12.09
2023-04-29T06:01:44.626Z,12.06
2023-04-29T06:02:58.054Z,12.06
2023-04-29T06:03:53.781Z,12.06
2023-04-29T06:04:58.210Z,12.05
2023-04-29T06:06:04.916Z,12.06
2023-04-29T06:07:03.725Z,12.09
2023-04-29T06:08:08.337Z,12.07
2023-04-29T06:09:23.831Z,12.11
2023-04-29T06:10:17.034Z,12.09
2023-04-29T06:11:21.116Z,12.09
2023-04-29T06:12:25.702Z,12.08
2023-04-29T06:13:30.050Z,12.01
2023-04-29T06:14:34.137Z,11.98
2023-04-29T06:15:38.741Z,11.98
2023-04-29T06:16:46.118Z,12.01
2023-04-29T06:17:45.314Z,12.03
2023-04-29T06:18:49.834Z,12.04
2023-04-29T06:19:53.937Z,12.08
2023-04-29T06:21:04.476Z,12.10
2023-04-29T06:22:10.421Z,12.08
2023-04-29T06:23:06.920Z,12.10
2023-04-29T06:24:11.000Z,12.04
2023-04-29T06:25:15.337Z,12.05
2023-04-29T06:26:19.684Z,12.06
2023-04-29T06:27:35.254Z,12.06
2023-04-29T06:28:29.175Z,12.09
2023-04-29T06:29:33.253Z,12.07
2023-04-29T06:30:34.123Z,12.14
2023-04-29T06:31:37.981Z,12.12
2023-04-29T06:32:42.361Z,12.11
2023-04-29T06:33:46.926Z,12.13
2023-04-29T06:34:50.998Z,12.06
2023-04-29T06:35:55.388Z,12.09
2023-04-29T06:36:59.692Z,12.09
2023-04-29T06:38:04.032Z,12.09
2023-04-29T06:39:08.874Z,12.10
2023-04-29T06:40:12.976Z,12.03
2023-04-29T06:41:17.040Z,12.03
2023-04-29T06:42:21.397Z,12.08
2023-04-29T06:43:28.492Z,12.05
2023-04-29T06:44:27.885Z,12.11
2023-04-29T06:45:32.244Z,12.12
2023-04-29T06:46:36.638Z,12.09
2023-04-29T06:47:40.730Z,12.13
2023-04-29T06:48:45.265Z,12.10
2023-04-29T06:49:49.845Z,12.12
2023-04-29T06:50:53.695Z,12.09
2023-04-29T06:51:58.286Z,12.11
2023-04-29T06:53:02.609Z,12.11
2023-04-29T06:54:06.694Z,12.11
2023-04-29T06:55:11.282Z,12.14
2023-04-29T06:56:16.956Z,12.16
2023-04-29T06:57:19.715Z,12.16
2023-04-29T06:58:24.592Z,12.16
2023-04-29T06:59:28.719Z,12.14
2023-04-29T07:00:28.884Z,12.15
2023-04-29T07:01:33.377Z,12.17
2023-04-29T07:02:37.422Z,12.13
2023-04-29T07:03:41.982Z,12.11
2023-04-29T07:04:46.002Z,12.04
2023-04-29T07:05:50.576Z,12.06
2023-04-29T07:06:54.910Z,12.02
2023-04-29T07:07:59.241Z,12.00
2023-04-29T07:09:03.609Z,12.07
2023-04-29T07:10:08.162Z,12.10
2023-04-29T07:11:12.259Z,12.15
2023-04-29T07:12:15.560Z,12.18
2023-04-29T07:13:20.948Z,12.18
2023-04-29T07:14:25.015Z,12.22
2023-04-29T07:15:29.359Z,12.28
2023-04-29T07:16:33.731Z,12.32
2023-04-29T07:17:38.137Z,12.31
2023-04-29T07:18:42.908Z,12.30
2023-04-29T07:19:47.005Z,12.40
2023-04-29T07:20:51.330Z,12.39
2023-04-29T07:21:55.404Z,12.42
2023-04-29T07:22:59.743Z,12.40
2023-04-29T07:24:04.366Z,12.39
2023-04-29T07:25:08.467Z,12.34
2023-04-29T07:26:12.798Z,12.36
2023-04-29T07:27:17.114Z,12.39
2023-04-29T07:28:21.966Z,12.26
2023-04-29T07:29:25.790Z,12.28
2023-04-29T07:30:26.429Z,12.30
2023-04-29T07:31:30.300Z,12.27
2023-04-29T07:32:35.206Z,12.25
2023-04-29T07:33:39.293Z,12.27
2023-04-29T07:34:43.622Z,12.31
2023-04-29T07:35:46.987Z,12.33
2023-04-29T07:36:48.878Z,12.38
2023-04-29T07:37:53.203Z,12.41
2023-04-29T07:38:57.800Z,12.38
2023-04-29T07:40:02.126Z,12.31
2023-04-29T07:41:06.466Z,12.38
2023-04-29T07:42:10.802Z,12.48
2023-04-29T07:43:15.140Z,12.54
2023-04-29T07:44:19.510Z,12.60
2023-04-29T07:45:23.634Z,12.68
2023-04-29T07:46:28.019Z,12.72
2023-04-29T07:47:32.356Z,12.75
2023-04-29T07:48:36.647Z,12.80
2023-04-29T07:49:41.523Z,12.84
2023-04-29T07:50:45.808Z,12.80
2023-04-29T07:51:49.671Z,12.85
2023-04-29T07:52:54.281Z,12.81
2023-04-29T07:53:58.601Z,12.84
2023-04-29T07:55:02.962Z,12.84
2023-04-29T07:56:27.454Z,12.86
2023-04-29T07:57:26.860Z,12.90
2023-04-29T07:58:31.336Z,12.89
2023-04-29T07:59:35.412Z,12.85
2023-04-29T08:00:39.745Z,12.79
2023-04-29T08:01:44.361Z,12.79
2023-04-29T08:02:48.811Z,12.80
2023-04-29T08:03:53.373Z,12.75
2023-04-29T08:04:57.599Z,12.73
2023-04-29T08:06:02.009Z,12.75
2023-04-29T08:07:06.044Z,12.82
2023-04-29T08:08:10.385Z,12.81
2023-04-29T08:09:14.501Z,12.86
2023-04-29T08:10:18.860Z,12.90
2023-04-29T08:11:23.449Z,12.92
2023-04-29T08:12:27.505Z,12.95
2023-04-29T08:13:32.091Z,12.98
2023-04-29T08:14:36.458Z,12.91
2023-04-29T08:15:40.800Z,12.97
2023-04-29T08:16:44.946Z,12.93
2023-04-29T08:17:49.255Z,12.90
2023-04-29T08:18:53.802Z,12.89
2023-04-29T08:19:58.124Z,12.83
2023-04-29T08:21:02.599Z,12.74
2023-04-29T08:22:06.590Z,12.74
2023-04-29T08:23:10.922Z,12.81
2023-04-29T08:24:15.522Z,12.82
2023-04-29T08:25:19.833Z,12.79
2023-04-29T08:26:19.999Z,12.75
2023-04-29T08:27:24.304Z,12.81
2023-04-29T08:28:28.369Z,12.83
2023-04-29T08:29:32.715Z,12.78
2023-04-29T08:30:37.292Z,12.78
2023-04-29T08:31:41.651Z,12.78
2023-04-29T08:32:45.743Z,12.75
2023-04-29T08:33:50.312Z,12.81
2023-04-29T08:34:54.944Z,12.86
2023-04-29T08:35:59.238Z,12.82
2023-04-29T08:37:03.576Z,12.88
2023-04-29T08:38:06.864Z,12.92
2023-04-29T08:39:11.727Z,12.94
2023-04-29T08:40:16.313Z,12.97
2023-04-29T08:41:20.395Z,12.98
2023-04-29T08:42:24.724Z,13.02
2023-04-29T08:43:29.502Z,13.03
2023-04-29T08:44:34.120Z,13.12
2023-04-29T08:45:38.438Z,13.12
2023-04-29T08:46:42.860Z,13.15
2023-04-29T08:47:46.621Z,13.17
2023-04-29T08:48:53.624Z,13.18
2023-04-29T08:49:53.012Z,13.22
2023-04-29T08:50:57.117Z,13.29
2023-04-29T08:52:01.711Z,13.32
2023-04-29T08:53:06.082Z,13.31
2023-04-29T08:54:10.117Z,13.34
2023-04-29T08:55:14.721Z,13.45
2023-04-29T08:56:17.823Z,13.53
2023-04-29T08:57:16.675Z,13.61
2023-04-29T08:58:21.224Z,13.67
2023-04-29T08:59:25.856Z,13.74
2023-04-29T09:00:29.683Z,13.86
2023-04-29T09:01:34.327Z,13.87
2023-04-29T09:02:38.676Z,13.98
2023-04-29T09:03:43.178Z,13.99
2023-04-29T09:04:47.109Z,13.99
2023-04-29T09:05:51.367Z,14.00
2023-04-29T09:06:55.960Z,14.02
2023-04-29T09:08:00.285Z,14.01
2023-04-29T09:09:04.909Z,13.96
2023-04-29T09:10:16.661Z,13.95
2023-04-29T09:11:13.045Z,13.94
2023-04-29T09:12:17.659Z,13.92
2023-04-29T09:13:22.301Z,13.97
2023-04-29T09:14:26.613Z,13.96
2023-04-29T09:15:30.935Z,13.96
2023-04-29T09:16:35.550Z,14.00
2023-04-29T09:17:39.891Z,14.00
2023-04-29T09:18:43.680Z,14.01
2023-04-29T09:19:48.276Z,14.04
2023-04-29T09:20:52.596Z,14.05
2023-04-29T09:21:56.925Z,14.03
2023-04-29T09:23:01.000Z,14.06
2023-04-29T09:24:05.372Z,13.96
2023-04-29T09:25:09.720Z,14.02
2023-04-29T09:26:10.082Z,13.95
2023-04-29T09:27:14.427Z,14.01
2023-04-29T09:28:18.803Z,14.02
2023-04-29T09:29:26.007Z,13.99
2023-04-29T09:30:25.398Z,13.98
2023-04-29T09:31:29.751Z,13.95
2023-04-29T09:32:34.100Z,13.84
2023-04-29T09:33:38.435Z,13.78
2023-04-29T09:35:08.638Z,13.70
2023-04-29T09:36:13.202Z,13.69
2023-04-29T09:37:17.808Z,13.66
2023-04-29T09:38:22.191Z,13.63
2023-04-29T09:39:26.260Z,13.59
2023-04-29T09:40:30.948Z,13.53
2023-04-29T09:41:34.692Z,13.52
2023-04-29T09:45:31.113Z,13.48
2023-04-29T09:46:35.449Z,13.34
2023-04-29T09:48:00.447Z,13.17
2023-04-29T09:48:44.110Z,13.13
2023-04-29T09:49:48.466Z,13.19
2023-04-29T09:50:52.519Z,13.18
2023-04-29T09:51:57.135Z,13.17
2023-04-29T09:53:01.788Z,13.18
2023-04-29T09:54:06.041Z,13.17
2023-04-29T09:55:10.136Z,13.09
2023-04-29T09:56:14.506Z,13.09
2023-04-29T09:57:18.540Z,13.04
2023-04-29T09:58:22.884Z,13.01
2023-04-29T09:59:27.257Z,12.96
2023-04-29T10:00:31.873Z,12.94
2023-04-29T10:01:36.252Z,12.87
2023-04-29T10:02:40.578Z,12.69
2023-04-29T10:03:45.234Z,12.69
2023-04-29T10:04:49.234Z,12.72
2023-04-29T10:05:53.554Z,12.73
2023-04-29T10:07:00.662Z,12.73
2023-04-29T10:08:00.043Z,12.62
2023-04-29T10:09:04.133Z,12.65
2023-04-29T10:10:08.711Z,12.58
2023-04-29T10:11:13.059Z,12.51
2023-04-29T10:12:17.169Z,12.50
2023-04-29T10:13:21.979Z,12.55
2023-04-29T10:14:25.826Z,12.47
2023-04-29T10:15:26.424Z,12.35
2023-04-29T10:16:30.720Z,12.39
2023-04-29T10:17:34.865Z,12.42
2023-04-29T10:18:39.002Z,12.41
2023-04-29T10:19:43.275Z,12.47
2023-04-29T10:20:47.860Z,12.43
2023-04-29T10:21:52.231Z,12.42
2023-04-29T10:22:56.772Z,12.46
2023-04-29T10:24:01.166Z,12.51
2023-04-29T10:25:07.888Z,12.58
2023-04-29T10:26:07.297Z,12.56
2023-04-29T10:27:11.611Z,12.65
2023-04-29T10:28:15.983Z,12.69
2023-04-29T10:29:20.040Z,12.81
2023-04-29T10:30:24.375Z,12.90
2023-04-29T10:31:28.752Z,12.91
2023-04-29T10:32:43.428Z,12.95
2023-04-29T10:33:37.419Z,12.98
2023-04-29T10:34:41.966Z,12.98
2023-04-29T10:35:46.310Z,13.00
2023-04-29T10:36:50.409Z,12.99
2023-04-29T10:37:54.756Z,13.01
2023-04-29T10:38:59.310Z,13.04
2023-04-29T10:40:03.386Z,13.06
2023-04-29T10:41:07.725Z,13.10
2023-04-29T10:42:12.325Z,13.15
2023-04-29T10:43:16.669Z,13.19
2023-04-29T10:44:21.287Z,13.21
2023-04-29T10:45:21.106Z,13.23
2023-04-29T10:46:25.729Z,13.34
2023-04-29T10:47:30.056Z,13.37
2023-04-29T10:48:33.837Z,13.44
2023-04-29T10:49:38.194Z,13.49
2023-04-29T10:50:42.772Z,13.48
2023-04-29T10:51:47.119Z,13.51
2023-04-29T10:52:51.451Z,13.63
2023-04-29T10:53:55.784Z,13.65
2023-04-29T10:54:59.856Z,13.71
2023-04-29T10:56:04.447Z,13.76
2023-04-29T10:57:08.772Z,13.70
2023-04-29T10:58:13.168Z,13.72
2023-04-29T10:59:17.819Z,13.79
2023-04-29T11:00:21.917Z,13.85
2023-04-29T11:01:25.972Z,13.81
2023-04-29T11:02:30.315Z,13.85
2023-04-29T11:03:34.749Z,13.85
2023-04-29T11:04:39.498Z,13.90
2023-04-29T11:05:43.547Z,13.87
2023-04-29T11:06:47.900Z,13.67
2023-04-29T11:07:51.971Z,13.46
2023-04-29T11:08:56.301Z,13.51
2023-04-29T11:10:00.645Z,13.52
2023-04-29T11:11:11.483Z,13.43
2023-04-29T11:12:09.353Z,13.48
2023-04-29T11:13:13.930Z,13.59
2023-04-29T11:14:18.264Z,13.68
2023-04-29T11:15:18.141Z,13.73
2023-04-29T11:16:22.791Z,13.71
2023-04-29T11:17:29.940Z,13.59
2023-04-29T11:18:29.329Z,13.58
2023-04-29T11:19:33.387Z,13.50
2023-04-29T11:20:37.734Z,13.53
2023-04-29T11:21:42.308Z,13.51
2023-04-29T11:22:46.412Z,13.42
2023-04-29T11:23:50.745Z,13.41
2023-04-29T11:24:55.607Z,13.41
2023-04-29T11:25:59.691Z,13.34
2023-04-29T11:27:04.279Z,13.39
2023-04-29T11:28:08.101Z,13.36
2023-04-29T11:29:12.704Z,13.44
2023-04-29T11:30:17.089Z,13.51
2023-04-29T11:31:21.427Z,13.48
2023-04-29T11:32:25.547Z,13.45
2023-04-29T11:33:29.814Z,13.47
2023-04-29T11:34:34.397Z,13.53
2023-04-29T11:35:38.740Z,13.60
2023-04-29T11:36:43.312Z,13.65
2023-04-29T11:37:47.558Z,13.69
2023-04-29T11:38:51.487Z,13.69
2023-04-29T11:39:55.817Z,13.69
2023-04-29T11:41:00.147Z,13.74
2023-04-29T11:42:04.744Z,13.77
2023-04-29T11:43:12.098Z,13.80
2023-04-29T11:44:11.216Z,13.82
2023-04-29T11:45:11.111Z,13.82
2023-04-29T11:46:15.457Z,13.88
2023-04-29T11:47:19.792Z,13.88
2023-04-29T11:48:24.349Z,13.97
2023-04-29T11:49:28.681Z,13.98
2023-04-29T11:50:32.756Z,13.96
2023-04-29T11:51:37.341Z,13.96
2023-04-29T11:52:41.431Z,14.02
2023-04-29T11:53:45.790Z,14.05
2023-04-29T11:54:50.383Z,14.11
2023-04-29T11:55:54.445Z,14.12
2023-04-29T11:56:59.049Z,14.17
2023-04-29T11:58:06.061Z,14.24
2023-04-29T11:59:05.182Z,14.31
2023-04-29T12:00:12.467Z,14.33
2023-04-29T12:01:11.784Z,14.39
2023-04-29T12:02:15.853Z,14.37
2023-04-29T12:03:20.378Z,14.43
2023-04-29T12:04:24.933Z,14.51
2023-04-29T12:05:29.193Z,14.53
2023-04-29T12:06:33.451Z,14.55
2023-04-29T12:07:37.609Z,14.60
2023-04-29T12:08:42.365Z,14.68
2023-04-29T12:09:46.501Z,14.72
2023-04-29T12:10:51.607Z,14.75
2023-04-29T12:11:51.246Z,14.69
2023-04-29T12:13:03.078Z,14.73
2023-04-29T12:14:01.655Z,14.72
2023-04-29T12:15:01.001Z,14.70
2023-04-29T12:16:04.874Z,14.69
2023-04-29T12:17:09.415Z,14.73
2023-04-29T12:18:13.623Z,14.66
2023-04-29T12:19:17.850Z,14.65
2023-04-29T12:20:21.791Z,14.66
2023-04-29T12:21:23.902Z,14.66
2023-04-29T12:22:27.991Z,14.73
2023-04-29T12:23:32.599Z,14.73
2023-04-29T12:24:37.198Z,14.78
2023-04-29T12:25:41.018Z,14.87
2023-04-29T12:26:45.358Z,14.75
2023-04-29T12:27:49.695Z,14.73
2023-04-29T12:28:54.305Z,14.75
2023-04-29T12:29:58.654Z,14.81
2023-04-29T12:31:03.021Z,14.82
2023-04-29T12:32:07.099Z,14.89
2023-04-29T12:33:12.046Z,14.96
2023-04-29T12:34:16.096Z,15.04
2023-04-29T12:35:20.446Z,15.04
2023-04-29T12:36:24.538Z,15.12
2023-04-29T12:37:28.865Z,15.11
2023-04-29T12:38:33.460Z,15.08
2023-04-29T12:39:37.518Z,15.05
2023-04-29T12:40:42.149Z,14.95
2023-04-29T12:41:46.745Z,14.91
2023-04-29T12:42:51.082Z,14.91
2023-04-29T12:43:54.878Z,14.93
2023-04-29T12:44:56.201Z,14.86
2023-04-29T12:45:59.479Z,14.83
2023-04-29T12:47:03.797Z,14.76
2023-04-29T12:48:12.324Z,14.73
2023-04-29T12:49:12.489Z,14.67
2023-04-29T12:50:16.819Z,14.70
2023-04-29T12:51:21.156Z,14.74
2023-04-29T12:52:25.516Z,14.72
2023-04-29T12:53:30.335Z,14.70
2023-04-29T12:54:34.442Z,14.81
2023-04-29T12:55:38.796Z,14.81
2023-04-29T12:56:43.115Z,14.76
2023-04-29T12:57:47.360Z,14.81
2023-04-29T12:58:51.544Z,14.83
2023-04-29T12:59:56.063Z,14.83
2023-04-29T13:01:00.584Z,14.76
2023-04-29T13:02:04.857Z,14.76
2023-04-29T13:03:09.278Z,14.65
2023-04-29T13:04:13.639Z,14.61
2023-04-29T13:05:17.569Z,14.66
2023-04-29T13:06:22.176Z,14.63
2023-04-29T13:07:26.266Z,14.65
2023-04-29T13:08:30.863Z,14.66
2023-04-29T13:09:34.916Z,14.56
2023-04-29T13:10:39.266Z,14.44
2023-04-29T13:11:44.110Z,14.43
2023-04-29T13:12:48.449Z,14.45
2023-04-29T13:13:52.523Z,14.42
2023-04-29T13:14:55.161Z,14.45
2023-04-29T13:15:57.029Z,14.50
2023-04-29T13:17:01.281Z,14.53
2023-04-29T13:18:05.723Z,14.48
2023-04-29T13:19:28.212Z,14.50
2023-04-29T13:20:15.245Z,14.48
2023-04-29T13:21:18.728Z,14.47
2023-04-29T13:22:23.073Z,14.46
2023-04-29T13:23:26.612Z,14.52
2023-04-29T13:24:28.783Z,14.55
2023-04-29T13:25:33.348Z,14.59
2023-04-29T13:26:37.148Z,14.60
2023-04-29T13:27:41.738Z,14.67
2023-04-29T13:28:46.094Z,14.67
2023-04-29T13:29:50.638Z,14.72
2023-04-29T13:30:54.504Z,14.73
2023-04-29T13:31:59.128Z,14.72
2023-04-29T13:33:09.632Z,14.84
2023-04-29T13:34:09.608Z,14.93
2023-04-29T13:35:12.105Z,15.02
2023-04-29T13:36:16.182Z,15.01
2023-04-29T13:37:20.775Z,15.12
2023-04-29T13:38:25.108Z,15.22
2023-04-29T13:39:29.495Z,15.27
2023-04-29T13:40:37.381Z,15.27
2023-04-29T13:41:41.250Z,15.18
2023-04-29T13:42:48.906Z,15.19
2023-04-29T13:43:50.315Z,15.13
2023-04-29T13:44:53.157Z,15.16
2023-04-29T13:45:52.843Z,15.15
2023-04-29T13:46:55.850Z,15.16
2023-04-29T13:48:09.673Z,15.14
2023-04-29T13:49:29.258Z,15.14
2023-04-29T13:51:34.450Z,15.12